Time;durP1;ratioP1;P1;durP2;ratioP2;P2;SDS_P1;SDS_P2;PMS_P1;PMS_P2;Temp;Humidity;BMP_temperature;BMP_pressure;BME280_temperature;BME280_humidity;BME280_pressure;Samples;Min_cycle;Max_cycle;Signal;HPM_P1;HPM_P2
2023/01/28 00:02:21;;;;;;;28.58;13.07;;;;;;;0.90;100.00;100258.03;5044599;28;20036;-60
2023/01/28 00:04:46;;;;;;;32.03;12.80;;;;;;;1.00;100.00;100256.13;5038424;28;20021;-60
2023/01/28 00:07:12;;;;;;;30.23;12.48;;;;;;;0.90;100.00;100265.13;5035993;28;20032;-60
2023/01/28 00:09:38;;;;;;;28.00;13.00;;;;;;;0.96;100.00;100265.34;5040333;28;20040;-59
2023/01/28 00:12:04;;;;;;;29.15;14.02;;;;;;;0.89;100.00;100263.47;5042503;28;20380;-59
2023/01/28 00:14:30;;;;;;;31.92;13.48;;;;;;;0.94;100.00;100261.19;5042113;28;20119;-60
2023/01/28 00:16:55;;;;;;;29.75;12.65;;;;;;;0.85;100.00;100260.31;5036541;28;20464;-60
2023/01/28 00:19:20;;;;;;;25.73;11.55;;;;;;;0.94;100.00;100264.66;5044606;28;20047;-60
2023/01/28 00:21:46;;;;;;;28.77;11.73;;;;;;;0.89;100.00;100264.28;5052415;28;20017;-60
2023/01/28 00:24:11;;;;;;;32.30;14.13;;;;;;;0.79;100.00;100263.56;5040845;28;20029;-59
2023/01/28 00:26:37;;;;;;;28.90;12.23;;;;;;;0.85;100.00;100269.06;5052424;28;20039;-60
2023/01/28 00:29:02;;;;;;;25.35;11.27;;;;;;;0.79;100.00;100263.56;5072142;28;20491;-60
2023/01/28 00:31:27;;;;;;;32.95;12.95;;;;;;;0.84;100.00;100261.28;5044182;28;20403;-60
2023/01/28 00:33:53;;;;;;;27.15;11.18;;;;;;;0.83;100.00;100254.38;5036254;28;20472;-60
2023/01/28 00:36:20;;;;;;;28.67;12.13;;;;;;;0.90;100.00;100250.13;5038660;28;20035;-60
2023/01/28 00:38:49;;;;;;;26.08;11.88;;;;;;;0.82;100.00;100252.69;5043877;28;20029;-60
2023/01/28 00:41:16;;;;;;;30.23;13.13;;;;;;;0.84;100.00;100251.56;5051709;28;20045;-60
2023/01/28 00:43:41;;;;;;;35.63;15.10;;;;;;;0.76;100.00;100254.13;5041603;28;20758;-59
2023/01/28 00:46:08;;;;;;;33.13;13.10;;;;;;;0.81;100.00;100253.69;5044446;28;20032;-60
2023/01/28 00:48:34;;;;;;;27.17;12.27;;;;;;;0.81;100.00;100246.59;5050787;28;20501;-60
2023/01/28 00:50:59;;;;;;;27.85;12.50;;;;;;;0.80;100.00;100249.38;5041551;28;20041;-60
2023/01/28 00:53:25;;;;;;;29.05;11.57;;;;;;;0.78;100.00;100246.91;5042768;28;20029;-60
2023/01/28 00:55:51;;;;;;;24.42;11.02;;;;;;;0.75;100.00;100241.09;5038171;28;20356;-60
2023/01/28 00:58:17;;;;;;;26.60;11.73;;;;;;;0.78;100.00;100248.72;5045365;28;20158;-60
2023/01/28 01:00:42;;;;;;;23.88;11.18;;;;;;;0.79;100.00;100245.09;5041796;28;20041;-60
2023/01/28 01:03:08;;;;;;;27.83;13.02;;;;;;;0.77;100.00;100247.03;5070818;28;20382;-60
2023/01/28 01:05:33;;;;;;;33.05;12.93;;;;;;;0.75;100.00;100251.66;5043349;28;20562;-60
2023/01/28 01:07:59;;;;;;;24.42;11.00;;;;;;;0.80;100.00;100249.38;5042665;28;20098;-60
2023/01/28 01:10:24;;;;;;;27.20;11.88;;;;;;;0.78;100.00;100254.00;5046690;28;20032;-60
2023/01/28 01:12:50;;;;;;;23.48;10.55;;;;;;;0.75;100.00;100247.22;5046940;28;20017;-60
2023/01/28 01:15:16;;;;;;;27.02;12.27;;;;;;;0.73;100.00;100251.00;5044736;28;20099;-60
2023/01/28 01:17:42;;;;;;;23.75;11.02;;;;;;;0.75;100.00;100255.13;5037738;28;20040;-60
2023/01/28 01:20:16;;;;;;;26.13;11.77;;;;;;;0.74;100.00;100252.63;5048893;28;20022;-60
2023/01/28 01:22:41;;;;;;;27.98;11.20;;;;;;;0.71;100.00;100250.31;5043530;28;20029;-59
2023/01/28 01:25:07;;;;;;;26.35;11.23;;;;;;;0.66;100.00;100252.59;5045959;28;20084;-61
2023/01/28 01:27:32;;;;;;;29.30;12.10;;;;;;;0.71;100.00;100263.50;5045258;28;20025;-58
2023/01/28 01:29:58;;;;;;;25.98;10.70;;;;;;;0.69;100.00;100261.00;5040218;28;20041;-59
2023/01/28 01:32:24;;;;;;;25.83;11.30;;;;;;;0.67;100.00;100254.22;5046491;28;20024;-58
2023/01/28 01:34:49;;;;;;;30.20;11.27;;;;;;;0.68;100.00;100263.81;5038664;28;20390;-59
2023/01/28 01:37:17;;;;;;;29.08;11.85;;;;;;;0.72;100.00;100263.34;5034737;28;20458;-59
2023/01/28 01:39:43;;;;;;;27.30;10.95;;;;;;;0.65;100.00;100259.69;5043226;28;20036;-58
2023/01/28 01:42:12;;;;;;;25.00;10.52;;;;;;;0.68;100.00;100266.47;5042396;28;20088;-58
2023/01/28 01:45:06;;;;;;;23.10;10.38;;;;;;;0.72;100.00;100262.50;5032901;28;20584;-58
2023/01/28 01:47:37;;;;;;;24.23;10.70;;;;;;;0.66;100.00;100258.69;5039516;28;20052;-58
2023/01/28 01:50:19;;;;;;;30.00;11.48;;;;;;;0.66;100.00;100255.22;5045230;28;20040;-59
2023/01/28 01:52:44;;;;;;;22.23;10.30;;;;;;;0.73;100.00;100257.09;5048407;28;20024;-60
2023/01/28 01:55:12;;;;;;;23.75;10.88;;;;;;;0.69;100.00;100253.09;5033421;28;20306;-60
2023/01/28 01:57:38;;;;;;;27.83;10.27;;;;;;;0.78;100.00;100259.28;5025172;28;20043;-60
2023/01/28 02:00:06;;;;;;;24.45;11.18;;;;;;;0.63;100.00;100251.91;5038985;28;20025;-60
2023/01/28 02:02:37;;;;;;;25.58;11.38;;;;;;;0.68;100.00;100255.91;5043963;28;20388;-60
2023/01/28 02:05:02;;;;;;;24.40;10.55;;;;;;;0.61;100.00;100250.41;5026525;28;20025;-60
2023/01/28 02:07:28;;;;;;;23.15;11.02;;;;;;;0.50;100.00;100248.00;5041347;28;20044;-60
2023/01/28 02:09:53;;;;;;;24.33;10.30;;;;;;;0.48;100.00;100249.97;5007360;28;20083;-59
2023/01/28 02:12:25;;;;;;;31.48;10.70;;;;;;;0.50;100.00;100248.84;5050396;28;20105;-60
2023/01/28 02:14:53;;;;;;;22.60;9.23;;;;;;;0.55;100.00;100243.94;5031176;28;20527;-59
2023/01/28 02:17:18;;;;;;;25.20;10.43;;;;;;;0.52;100.00;100246.03;5052424;28;20033;-60
2023/01/28 02:19:55;;;;;;;28.10;11.55;;;;;;;0.55;100.00;100241.28;5059678;28;20033;-60
2023/01/28 02:22:46;;;;;;;22.77;10.18;;;;;;;0.57;100.00;100247.22;5076222;28;20024;-59
2023/01/28 02:25:27;;;;;;;21.67;9.48;;;;;;;0.52;100.00;100256.59;5029277;28;20045;-60
2023/01/28 02:28:30;;;;;;;23.42;9.80;;;;;;;0.55;100.00;100245.72;5036799;28;20060;-60
2023/01/28 02:31:00;;;;;;;29.38;12.38;;;;;;;0.45;100.00;100259.03;5040902;28;20067;-61
2023/01/28 02:33:40;;;;;;;28.85;12.07;;;;;;;0.50;100.00;100261.19;5061352;28;20426;-60
2023/01/28 02:36:22;;;;;;;23.52;10.77;;;;;;;0.48;100.00;100261.34;5035034;28;20032;-60
2023/01/28 02:38:48;;;;;;;26.38;10.85;;;;;;;0.40;100.00;100256.84;5031558;28;20030;-60
2023/01/28 02:41:24;;;;;;;28.05;10.98;;;;;;;0.45;100.00;100260.81;5047582;28;20056;-60
2023/01/28 02:43:49;;;;;;;26.17;11.98;;;;;;;0.46;100.00;100263.31;5046815;28;20061;-60
2023/01/28 02:49:25;;;;;;;26.83;12.40;;;;;;;0.53;100.00;100263.53;5038359;28;20031;-60
2023/01/28 02:52:09;;;;;;;29.13;12.27;;;;;;;0.53;100.00;100264.34;5038527;28;20059;-60
2023/01/28 02:54:56;;;;;;;24.00;10.77;;;;;;;0.47;100.00;100261.47;5045153;28;20446;-60
2023/01/28 02:57:42;;;;;;;23.75;10.73;;;;;;;0.47;100.00;100267.59;5036969;28;20021;-60
2023/01/28 03:00:17;;;;;;;23.38;10.43;;;;;;;0.47;100.00;100275.50;5032429;28;20086;-60
2023/01/28 03:02:49;;;;;;;24.55;10.00;;;;;;;0.48;100.00;100269.25;5062672;28;20025;-59
2023/01/28 03:05:14;;;;;;;21.45;9.82;;;;;;;0.40;100.00;100275.28;5048862;28;20054;-60
2023/01/28 03:07:40;;;;;;;26.90;11.02;;;;;;;0.41;100.00;100289.31;5047928;28;20038;-59
2023/01/28 03:10:08;;;;;;;24.67;10.82;;;;;;;0.37;100.00;100280.03;5047822;28;20052;-59
2023/01/28 03:37:47;;;;;;;26.55;10.70;;;;;;;0.29;100.00;100303.69;5033142;28;20525;-59
2023/01/28 03:40:12;;;;;;;24.52;10.60;;;;;;;0.21;100.00;100305.25;5042687;28;20037;-59
2023/01/28 03:42:38;;;;;;;25.60;10.25;;;;;;;0.25;100.00;100307.59;5045082;28;20046;-59
2023/01/28 03:45:04;;;;;;;30.52;11.73;;;;;;;0.30;100.00;100313.25;5042346;28;20048;-59
2023/01/28 03:47:30;;;;;;;26.52;11.82;;;;;;;0.34;100.00;100307.53;5043606;28;20032;-59
2023/01/28 03:49:56;;;;;;;24.67;10.38;;;;;;;0.42;100.00;100312.06;5046226;28;20035;-59
2023/01/28 03:52:26;;;;;;;32.40;10.80;;;;;;;0.25;100.00;100308.44;5045757;28;20522;-59
2023/01/28 03:54:51;;;;;;;27.88;10.55;;;;;;;0.20;100.00;100310.66;5044415;28;20029;-59
2023/01/28 03:57:18;;;;;;;25.88;10.07;;;;;;;0.20;100.00;100310.66;5048517;28;20025;-59
2023/01/28 03:59:44;;;;;;;28.83;12.13;;;;;;;0.30;100.00;100313.25;5043504;28;20476;-59
2023/01/28 04:02:10;;;;;;;27.75;11.85;;;;;;;0.23;100.00;100313.03;5044493;28;20028;-59
2023/01/28 04:04:38;;;;;;;35.63;11.50;;;;;;;0.21;100.00;100307.91;5041758;28;20029;-60
2023/01/28 04:07:04;;;;;;;30.60;11.75;;;;;;;0.27;100.00;100308.28;5035363;28;20396;-59
2023/01/28 04:09:30;;;;;;;30.38;10.88;;;;;;;0.24;100.00;100312.03;5041001;28;20059;-59
2023/01/28 04:11:55;;;;;;;28.05;11.20;;;;;;;0.26;100.00;100306.63;5039354;28;20034;-59
2023/01/28 04:14:21;;;;;;;27.67;11.43;;;;;;;0.25;100.00;100307.59;5038932;28;20040;-59
2023/01/28 04:16:46;;;;;;;26.63;11.05;;;;;;;0.28;100.00;100307.31;5040090;28;20033;-59
2023/01/28 04:19:12;;;;;;;29.30;10.88;;;;;;;0.26;100.00;100314.53;5046908;28;20030;-59
2023/01/28 04:21:38;;;;;;;26.90;11.68;;;;;;;0.25;100.00;100320.78;5045939;28;20244;-59
2023/01/28 04:24:03;;;;;;;26.75;11.55;;;;;;;0.20;100.00;100314.16;5045061;28;20032;-59
2023/01/28 04:26:29;;;;;;;30.70;11.02;;;;;;;0.27;100.00;100324.09;5044501;28;20016;-59
2023/01/28 04:28:54;;;;;;;26.05;11.82;;;;;;;0.21;100.00;100322.91;5043637;28;20025;-59
2023/01/28 04:31:20;;;;;;;24.02;11.23;;;;;;;0.28;100.00;100323.13;5045639;28;20033;-60
2023/01/28 04:33:45;;;;;;;29.05;10.85;;;;;;;0.20;100.00;100321.22;5036974;28;20026;-59
2023/01/28 04:36:10;;;;;;;29.13;11.60;;;;;;;0.19;100.00;100320.41;5039927;28;20148;-59
2023/01/28 04:38:36;;;;;;;27.60;11.25;;;;;;;0.18;100.00;100321.38;5037316;28;20037;-59
2023/01/28 04:41:01;;;;;;;28.95;11.88;;;;;;;0.33;100.00;100328.78;5051022;28;21193;-60
2023/01/28 04:43:29;;;;;;;40.92;12.52;;;;;;;0.19;100.00;100325.66;5042478;28;20072;-59
2023/01/28 04:45:54;;;;;;;32.20;11.82;;;;;;;0.24;100.00;100327.88;5034292;28;20037;-59
2023/01/28 04:48:20;;;;;;;31.00;12.02;;;;;;;0.24;100.00;100325.22;5040337;28;20032;-59
2023/01/28 04:50:45;;;;;;;29.10;11.13;;;;;;;0.28;100.00;100326.59;5041890;28;20437;-60
2023/01/28 04:53:10;;;;;;;27.05;10.93;;;;;;;0.27;100.00;100332.00;5041923;28;20467;-59
2023/01/28 04:55:36;;;;;;;31.15;10.73;;;;;;;0.27;100.00;100332.00;5045483;28;20025;-59
2023/01/28 04:58:01;;;;;;;31.00;11.35;;;;;;;0.20;100.00;100337.03;5041810;28;20108;-59
2023/01/28 05:00:27;;;;;;;27.70;10.57;;;;;;;0.21;100.00;100339.53;5045171;28;20033;-59
2023/01/28 05:02:52;;;;;;;34.20;12.32;;;;;;;0.21;100.00;100339.53;5042165;28;20083;-59
2023/01/28 05:05:18;;;;;;;28.10;12.18;;;;;;;0.29;100.00;100335.34;5039707;28;20044;-59
2023/01/28 05:07:44;;;;;;;28.08;11.82;;;;;;;0.24;100.00;100327.03;5043913;28;20119;-59
2023/01/28 05:10:09;;;;;;;30.83;12.50;;;;;;;0.16;100.00;100335.69;5038052;28;20087;-59
2023/01/28 05:12:35;;;;;;;32.47;13.15;;;;;;;0.22;100.00;100332.44;5045541;28;20033;-59
2023/01/28 05:15:00;;;;;;;29.27;12.10;;;;;;;0.18;100.00;100334.56;5040678;28;20537;-59
2023/01/28 05:17:26;;;;;;;32.58;12.73;;;;;;;0.11;100.00;100330.84;5051349;28;20041;-59
2023/01/28 05:19:52;;;;;;;33.72;13.43;;;;;;;0.13;100.00;100330.72;5039491;28;20025;-59
2023/01/28 05:22:17;;;;;;;33.92;11.95;;;;;;;0.04;100.00;100337.69;5044802;28;20442;-59
2023/01/28 05:24:43;;;;;;;29.05;12.35;;;;;;;0.09;100.00;100339.91;5041337;28;20468;-59
2023/01/28 05:27:08;;;;;;;36.55;13.88;;;;;;;0.08;100.00;100338.25;5048334;28;20025;-59
2023/01/28 05:29:34;;;;;;;34.47;12.93;;;;;;;0.20;100.00;100342.31;5040950;28;20040;-59
2023/01/28 05:31:59;;;;;;;28.50;12.18;;;;;;;0.07;100.00;100347.94;5038737;28;20033;-59
2023/01/28 05:34:24;;;;;;;29.20;11.63;;;;;;;0.12;100.00;100350.13;5045780;28;20063;-59
2023/01/28 05:36:50;;;;;;;38.28;13.27;;;;;;;0.15;100.00;100353.31;5046222;28;20040;-59
2023/01/28 05:39:15;;;;;;;30.35;12.82;;;;;;;0.12;100.00;100361.50;5042495;28;20061;-59
2023/01/28 05:41:41;;;;;;;34.92;12.02;;;;;;;0.07;100.00;100361.13;5041961;28;20521;-59
2023/01/28 05:44:06;;;;;;;36.13;14.05;;;;;;;0.03;100.00;100357.13;5033098;28;20483;-59
2023/01/28 05:46:31;;;;;;;35.17;12.60;;;;;;;0.06;100.00;100361.28;5039173;28;20032;-59
2023/01/28 05:48:57;;;;;;;36.92;11.77;;;;;;;0.05;100.00;100362.25;5035431;28;20029;-59
2023/01/28 05:51:22;;;;;;;35.50;13.25;;;;;;;0.09;100.00;100367.06;5038824;28;20391;-59
2023/01/28 05:53:48;;;;;;;29.80;12.38;;;;;;;0.06;100.00;100372.66;5043053;28;20387;-59
2023/01/28 05:56:13;;;;;;;28.83;11.20;;;;;;;-0.02;100.00;100369.94;5043733;28;20025;-59
2023/01/28 05:58:38;;;;;;;35.20;12.68;;;;;;;-0.06;100.00;100373.81;5041357;28;20431;-59
2023/01/28 06:01:04;;;;;;;31.30;11.32;;;;;;;-0.06;100.00;100376.44;5041809;28;20032;-59
2023/01/28 06:03:29;;;;;;;37.22;13.45;;;;;;;-0.07;100.00;100367.72;5051820;28;20044;-59
2023/01/28 06:05:55;;;;;;;37.08;12.60;;;;;;;-0.09;100.00;100374.13;5037177;28;20260;-59
2023/01/28 06:08:20;;;;;;;25.08;11.20;;;;;;;-0.01;100.00;100376.84;5049832;28;20053;-59
2023/01/28 06:10:45;;;;;;;32.15;12.27;;;;;;;-0.06;100.00;100373.81;5044353;28;20026;-59
2023/01/28 06:13:11;;;;;;;26.23;10.55;;;;;;;-0.06;100.00;100382.56;5050532;28;20716;-59
2023/01/28 06:15:36;;;;;;;30.55;10.65;;;;;;;-0.12;100.00;100379.69;5039183;28;20380;-59
2023/01/28 06:18:02;;;;;;;26.35;10.10;;;;;;;-0.17;100.00;100384.56;5038987;28;20029;-59
2023/01/28 06:20:27;;;;;;;32.85;10.30;;;;;;;-0.14;100.00;100392.16;5040919;28;20082;-59
2023/01/28 06:22:52;;;;;;;29.00;10.82;;;;;;;-0.17;100.00;100387.19;5035562;28;20029;-59
2023/01/28 06:25:18;;;;;;;31.08;12.30;;;;;;;-0.18;100.00;100391.63;5036826;28;20035;-59
2023/01/28 06:27:43;;;;;;;26.27;10.10;;;;;;;-0.22;100.00;100391.09;5034507;28;20032;-59
2023/01/28 06:30:09;;;;;;;29.13;11.90;;;;;;;-0.20;100.00;100396.22;5041393;28;20463;-59
2023/01/28 06:32:35;;;;;;;26.60;10.27;;;;;;;-0.29;100.00;100390.00;5037307;28;20116;-59
2023/01/28 06:35:01;;;;;;;29.08;11.88;;;;;;;-0.32;100.00;100402.63;5052739;28;20033;-59
2023/01/28 06:37:26;;;;;;;29.63;11.20;;;;;;;-0.37;100.00;100400.44;5037308;28;20741;-59
2023/01/28 06:39:52;;;;;;;31.55;11.93;;;;;;;-0.33;100.00;100406.22;5037963;28;20395;-59
2023/01/28 06:42:17;;;;;;;31.73;12.05;;;;;;;-0.33;100.00;100403.59;5040925;28;20050;-59
2023/01/28 06:44:43;;;;;;;28.98;10.00;;;;;;;-0.34;100.00;100408.03;5040100;28;20029;-59
2023/01/28 06:47:09;;;;;;;79.45;25.27;;;;;;;-0.39;100.00;100417.34;5041295;28;20367;-59
2023/01/28 06:49:38;;;;;;;35.58;13.70;;;;;;;-0.47;100.00;100420.69;5044589;28;20037;-59
2023/01/28 06:52:03;;;;;;;32.08;13.95;;;;;;;-0.39;100.00;100412.06;5033998;28;20025;-59
2023/01/28 06:54:29;;;;;;;30.75;11.35;;;;;;;-0.42;100.00;100410.56;5034086;28;20033;-59
2023/01/28 06:56:54;;;;;;;31.75;12.30;;;;;;;-0.46;100.00;100417.91;5039540;28;20032;-59
2023/01/28 06:59:20;;;;;;;30.80;10.77;;;;;;;-0.48;100.00;100411.94;5039434;28;20044;-59
2023/01/28 07:01:45;;;;;;;26.88;11.57;;;;;;;-0.39;100.00;100423.44;5041250;28;20040;-59
2023/01/28 07:04:11;;;;;;;30.23;11.70;;;;;;;-0.47;100.00;100423.31;5037675;28;20022;-59
2023/01/28 07:06:36;;;;;;;28.80;11.95;;;;;;;-0.45;100.00;100427.47;5050063;28;20032;-59
2023/01/28 07:09:01;;;;;;;32.05;12.93;;;;;;;-0.43;100.00;100429.97;5049087;28;20479;-59
2023/01/28 07:11:27;;;;;;;27.00;11.23;;;;;;;-0.56;100.00;100432.06;5040253;28;20029;-59
2023/01/28 07:13:52;;;;;;;30.95;11.40;;;;;;;-0.49;100.00;100434.00;5039565;28;20016;-59
2023/01/28 07:16:18;;;;;;;28.55;11.00;;;;;;;-0.55;100.00;100434.56;5044561;28;20036;-59
2023/01/28 07:18:43;;;;;;;29.33;11.55;;;;;;;-0.53;100.00;100439.69;5041261;28;20025;-59
2023/01/28 07:21:08;;;;;;;32.00;12.80;;;;;;;-0.51;100.00;100440.38;5046018;28;20417;-59
2023/01/28 07:23:34;;;;;;;36.90;12.65;;;;;;;-0.56;100.00;100434.69;5044016;28;20463;-59
2023/01/28 07:26:01;;;;;;;38.33;11.27;;;;;;;-0.59;100.00;100442.88;5064498;28;20452;-59
2023/01/28 07:28:26;;;;;;;28.75;11.55;;;;;;;-0.51;100.00;100443.00;5048661;28;20028;-59
2023/01/28 07:30:52;;;;;;;32.30;13.18;;;;;;;-0.56;100.00;100435.53;5038559;28;20032;-59
2023/01/28 07:33:17;;;;;;;40.13;14.15;;;;;;;-0.51;100.00;100443.00;5045300;28;20116;-59
2023/01/28 07:35:43;;;;;;;34.45;13.00;;;;;;;-0.51;100.00;100437.75;5040904;28;20127;-59
2023/01/28 07:38:08;;;;;;;39.78;13.52;;;;;;;-0.52;100.00;100446.63;5039205;28;20044;-59
2023/01/28 07:40:34;;;;;;;37.22;14.75;;;;;;;-0.55;100.00;100444.25;5043644;28;20463;-59
2023/01/28 07:42:59;;;;;;;32.30;14.15;;;;;;;-0.44;100.00;100438.84;5035296;28;20384;-59
2023/01/28 07:45:25;;;;;;;38.55;14.02;;;;;;;-0.64;100.00;100438.03;5033672;28;20479;-59
2023/01/28 07:47:57;;;;;;;34.85;15.18;;;;;;;-0.66;100.00;100437.34;5032845;28;20024;-59
2023/01/28 07:50:23;;;;;;;40.00;16.80;;;;;;;-0.64;100.00;100445.13;5047715;28;20024;-59
2023/01/28 07:52:49;;;;;;;39.53;16.52;;;;;;;-0.57;100.00;100438.31;5044020;28;20025;-59
2023/01/28 07:55:15;;;;;;;38.08;15.88;;;;;;;-0.63;100.00;100444.13;5032104;28;20048;-59
2023/01/28 07:57:51;;;;;;;41.90;16.45;;;;;;;-0.64;100.00;100442.47;5047543;28;20028;-59
2023/01/28 08:00:17;;;;;;;46.63;19.70;;;;;;;-0.50;100.00;100444.66;5044824;28;20120;-59
2023/01/28 08:02:46;;;;;;;61.22;21.65;;;;;;;-0.44;100.00;100439.66;5041802;28;20067;-58
2023/01/28 08:05:21;;;;;;;40.80;16.38;;;;;;;-0.51;100.00;100438.56;5051748;28;20040;-59
2023/01/28 08:07:49;;;;;;;40.22;15.15;;;;;;;-0.46;100.00;100440.78;5049379;28;20179;-58
2023/01/28 08:10:18;;;;;;;48.53;19.52;;;;;;;-0.34;100.00;100442.28;5041287;28;20068;-59
2023/01/28 08:12:50;;;;;;;69.18;23.15;;;;;;;-0.33;100.00;100449.19;5038845;28;20162;-58
2023/01/28 08:15:16;;;;;;;43.63;14.80;;;;;;;-0.35;100.00;100437.16;5040229;28;20044;-58
2023/01/28 08:17:41;;;;;;;37.47;16.02;;;;;;;-0.34;100.00;100437.00;5035171;28;20029;-58
2023/01/28 08:20:08;;;;;;;51.28;17.70;;;;;;;-0.20;100.00;100434.88;5040667;28;20033;-58
2023/01/28 08:22:34;;;;;;;40.67;16.48;;;;;;;-0.13;100.00;100441.25;5049176;28;20498;-58
2023/01/28 08:24:59;;;;;;;33.67;14.38;;;;;;;-0.16;100.00;100449.44;5046925;28;20034;-58
2023/01/28 08:27:25;;;;;;;39.17;15.75;;;;;;;-0.04;100.00;100451.78;5051650;28;20039;-58
2023/01/28 08:29:50;;;;;;;35.72;16.15;;;;;;;-0.07;100.00;100456.50;5044590;28;20037;-58
2023/01/28 08:32:16;;;;;;;39.95;16.38;;;;;;;-0.17;100.00;100466.25;5046737;28;20087;-58
2023/01/28 08:34:41;;;;;;;36.55;14.70;;;;;;;-0.26;100.00;100465.28;5037749;28;20041;-59
2023/01/28 08:37:06;;;;;;;34.45;15.13;;;;;;;-0.20;100.00;100463.88;5039898;28;20044;-60
2023/01/28 08:39:32;;;;;;;34.03;14.27;;;;;;;-0.23;100.00;100468.44;5044522;28;20016;-60
2023/01/28 08:41:57;;;;;;;34.92;14.70;;;;;;;-0.19;100.00;100478.72;5044363;28;20040;-60
2023/01/28 08:44:23;;;;;;;42.88;17.05;;;;;;;-0.27;100.00;100469.72;5051437;28;20494;-60
2023/01/28 08:46:48;;;;;;;37.60;15.55;;;;;;;-0.16;100.00;100470.53;5040766;28;20029;-59
2023/01/28 08:49:14;;;;;;;34.50;14.32;;;;;;;-0.13;100.00;100476.34;5041897;28;20029;-59
2023/01/28 08:51:39;;;;;;;30.25;13.30;;;;;;;-0.14;100.00;100477.31;5042574;28;20075;-59
2023/01/28 08:54:04;;;;;;;33.78;13.52;;;;;;;-0.13;100.00;100484.25;5042119;28;20028;-59
2023/01/28 08:56:30;;;;;;;30.77;13.32;;;;;;;-0.16;100.00;100471.34;5042130;28;20518;-59
2023/01/28 08:58:55;;;;;;;38.70;15.07;;;;;;;-0.21;100.00;100470.97;5047093;28;20327;-58
2023/01/28 09:01:21;;;;;;;34.50;13.93;;;;;;;-0.34;100.00;100468.63;5041180;28;20572;-59
2023/01/28 09:03:46;;;;;;;30.75;13.38;;;;;;;-0.23;100.00;100473.72;5041665;28;20032;-58
2023/01/28 09:06:12;;;;;;;34.92;13.07;;;;;;;-0.21;100.00;100476.22;5042037;28;20022;-59
2023/01/28 09:08:37;;;;;;;34.88;14.15;;;;;;;-0.06;100.00;100484.50;5031324;28;20646;-58
2023/01/28 09:11:03;;;;;;;34.35;12.57;;;;;;;-0.13;100.00;100478.97;5040915;28;20448;-61
2023/01/28 09:13:29;;;;;;;37.55;13.27;;;;;;;-0.27;100.00;100482.91;5049277;28;20039;-58
2023/01/28 09:15:54;;;;;;;31.52;11.90;;;;;;;-0.28;100.00;100478.59;5037438;28;20037;-58
2023/01/28 09:18:20;;;;;;;27.73;11.88;;;;;;;-0.18;100.00;100480.38;5050599;28;20052;-59
2023/01/28 09:20:45;;;;;;;30.55;12.48;;;;;;;-0.19;100.00;100489.28;5047872;28;20029;-60
2023/01/28 09:23:11;;;;;;;28.38;11.95;;;;;;;-0.22;100.00;100496.47;5049875;28;20486;-59
2023/01/28 09:25:36;;;;;;;34.38;13.27;;;;;;;-0.27;100.00;100488.19;5037851;28;20117;-59
2023/01/28 09:28:02;;;;;;;36.70;15.15;;;;;;;-0.11;100.00;100494.66;5043526;28;20037;-59
2023/01/28 09:30:28;;;;;;;28.70;11.77;;;;;;;-0.21;100.00;100497.31;5048746;28;20082;-60
2023/01/28 09:32:53;;;;;;;41.08;16.55;;;;;;;-0.15;100.00;100490.63;5069794;28;20688;-59
2023/01/28 09:35:19;;;;;;;44.70;16.40;;;;;;;0.01;100.00;100492.69;5070107;28;20043;-60
2023/01/28 09:37:46;;;;;;;45.42;17.42;;;;;;;0.08;100.00;100497.25;5045261;28;20040;-60
2023/01/28 09:40:40;;;;;;;36.40;14.18;;;;;;;0.23;100.00;100494.16;5040404;28;20030;-59
2023/01/28 09:43:11;;;;;;;54.85;19.20;;;;;;;0.45;100.00;100499.06;5043809;28;20041;-59
2023/01/28 09:45:39;;;;;;;55.83;18.13;;;;;;;0.63;100.00;100499.94;5046909;28;20056;-59
2023/01/28 09:48:05;;;;;;;43.22;15.25;;;;;;;0.52;99.20;100494.84;5027111;28;20029;-59
2023/01/28 09:50:37;;;;;;;40.67;16.98;;;;;;;0.59;98.38;100509.09;5020922;28;20048;-59
2023/01/28 09:53:20;;;;;;;41.00;19.48;;;;;;;0.50;97.71;100503.88;5040308;28;20029;-60
2023/01/28 09:56:13;;;;;;;27.55;11.20;;;;;;;0.56;96.67;100511.22;5045576;28;20051;-60
2023/01/28 09:58:40;;;;;;;28.45;11.50;;;;;;;0.55;96.66;100520.09;5068879;28;20033;-59
2023/01/28 10:01:43;;;;;;;24.50;11.23;;;;;;;0.66;95.13;100527.84;5030878;28;20099;-59
2023/01/28 10:04:11;;;;;;;25.73;9.95;;;;;;;1.13;96.82;100526.88;5045211;28;20041;-59
2023/01/28 10:06:59;;;;;;;23.35;10.65;;;;;;;0.90;93.82;100527.31;5039650;28;20026;-59
2023/01/28 10:09:58;;;;;;;26.02;10.60;;;;;;;1.00;92.92;100530.72;5043523;28;20110;-59
2023/01/28 10:12:26;;;;;;;20.85;9.75;;;;;;;1.07;92.08;100539.69;5040779;28;20362;-59
2023/01/28 10:14:57;;;;;;;17.65;8.85;;;;;;;1.20;91.73;100533.19;5042929;28;20095;-59
2023/01/28 10:17:31;;;;;;;19.73;8.70;;;;;;;1.15;93.96;100538.09;5047091;28;20052;-59
2023/01/28 10:19:59;;;;;;;15.70;7.63;;;;;;;1.43;93.24;100542.34;5041832;28;20084;-59
2023/01/28 10:22:28;;;;;;;19.67;8.32;;;;;;;1.50;91.26;100530.22;5045662;28;20028;-59
2023/01/28 10:25:05;;;;;;;18.05;8.18;;;;;;;1.37;91.62;100534.19;5009867;28;20029;-58
2023/01/28 10:27:30;;;;;;;19.35;9.65;;;;;;;1.61;91.92;100530.94;5040958;28;20471;-58
2023/01/28 10:29:56;;;;;;;21.05;9.00;;;;;;;1.56;90.91;100525.28;5042291;28;20052;-58
2023/01/28 10:32:35;;;;;;;17.98;8.02;;;;;;;1.56;89.99;100528.75;5035892;28;20129;-59
2023/01/28 10:35:02;;;;;;;14.02;7.60;;;;;;;1.51;89.55;100539.78;5037569;28;20021;-58
2023/01/28 10:37:28;;;;;;;15.73;9.02;;;;;;;1.45;88.36;100529.84;5039780;28;20077;-59
2023/01/28 10:39:57;;;;;;;20.33;7.72;;;;;;;1.51;87.75;100529.22;5033213;28;20806;-58
2023/01/28 10:42:33;;;;;;;15.65;7.72;;;;;;;1.32;89.45;100534.66;5043315;28;20368;-58
2023/01/28 10:45:20;;;;;;;17.35;6.25;;;;;;;1.51;89.36;100529.22;5043047;28;20090;-58
2023/01/28 10:47:55;;;;;;;13.75;6.63;;;;;;;1.49;90.08;100530.34;5044056;28;20387;-58
2023/01/28 10:50:25;;;;;;;12.85;6.82;;;;;;;1.55;88.66;100534.19;5042433;28;20356;-59
2023/01/28 10:52:58;;;;;;;13.57;7.43;;;;;;;1.41;89.62;100538.22;5039074;28;20064;-59
2023/01/28 10:55:26;;;;;;;12.60;5.85;;;;;;;1.20;88.61;100536.69;5079559;28;20028;-58
2023/01/28 10:57:52;;;;;;;13.65;6.72;;;;;;;1.19;88.14;100539.47;5045367;28;20056;-59
2023/01/28 11:00:32;;;;;;;26.40;7.22;;;;;;;1.29;84.48;100534.94;5074416;28;20032;-58
2023/01/28 11:02:57;;;;;;;10.45;4.30;;;;;;;1.18;83.55;100537.81;5038857;28;20052;-58
2023/01/28 11:05:27;;;;;;;9.57;4.80;;;;;;;1.28;84.94;100539.41;5034782;28;20025;-58
2023/01/28 11:08:04;;;;;;;9.18;4.45;;;;;;;1.26;85.59;100537.91;5040949;28;20099;-58
2023/01/28 11:10:35;;;;;;;10.15;4.95;;;;;;;1.06;85.29;100524.00;5043367;28;20045;-58
2023/01/28 11:13:03;;;;;;;10.38;5.47;;;;;;;1.27;85.78;100536.91;5044647;28;20037;-58
2023/01/28 11:15:28;;;;;;;8.65;4.50;;;;;;;1.03;85.58;100534.88;5040190;28;20416;-58
2023/01/28 11:17:56;;;;;;;9.98;4.93;;;;;;;1.14;83.31;100528.53;5029472;28;20427;-58
2023/01/28 11:20:24;;;;;;;10.18;4.68;;;;;;;1.25;83.27;100533.59;5026941;28;20037;-59
2023/01/28 11:22:49;;;;;;;9.73;4.85;;;;;;;1.07;83.74;100525.66;5022783;28;20029;-58
2023/01/28 11:25:32;;;;;;;10.23;5.30;;;;;;;1.13;85.13;100519.78;5036521;28;20369;-59
2023/01/28 11:27:58;;;;;;;10.98;5.60;;;;;;;0.98;85.87;100510.72;5038155;28;20033;-58
2023/01/28 11:30:39;;;;;;;10.63;5.85;;;;;;;1.14;86.47;100520.59;5036756;28;20031;-58
2023/01/28 11:33:07;;;;;;;;;;;;;;;1.17;85.70;100520.31;5033277;28;20033;-58
2023/01/28 11:35:32;;;;;;;12.60;6.85;;;;;;;1.29;87.14;100519.94;5031524;28;20477;-58
2023/01/28 11:37:58;;;;;;;22.15;10.02;;;;;;;1.31;88.02;100524.25;5035492;28;20435;-58
2023/01/28 11:40:24;;;;;;;24.20;11.13;;;;;;;1.31;88.17;100522.44;5039572;28;20378;-59
2023/01/28 11:42:49;;;;;;;12.57;7.05;;;;;;;1.42;86.63;100524.84;5056379;28;20035;-58